createdAt,value
2022-12-09T00:01:06.867Z,100620.00
2022-12-09T00:03:42.015Z,100620.78
2022-12-09T00:06:17.458Z,100619.34
2022-12-09T00:08:52.815Z,100623.56
2022-12-09T00:11:26.303Z,100620.31
2022-12-09T00:14:00.318Z,100620.38
2022-12-09T00:16:33.602Z,100612.16
2022-12-09T00:19:08.802Z,100617.59
2022-12-09T00:21:42.537Z,100613.91
2022-12-09T00:24:15.357Z,100628.59
2022-12-09T00:26:48.308Z,100625.09
2022-12-09T00:29:21.086Z,100627.81
2022-12-09T00:31:54.084Z,100631.03
2022-12-09T00:34:28.203Z,100629.56
2022-12-09T00:37:00.888Z,100625.28
2022-12-09T00:39:33.690Z,100627.88
2022-12-09T00:42:06.353Z,100633.88
2022-12-09T00:44:39.890Z,100633.75
2022-12-09T00:47:12.667Z,100640.75
2022-12-09T00:49:46.895Z,100636.19
2022-12-09T00:52:19.662Z,100636.00
2022-12-09T00:54:52.500Z,100640.63
2022-12-09T00:57:25.297Z,100646.19
2022-12-09T00:59:58.290Z,100649.56
2022-12-09T01:02:31.268Z,100645.91
2022-12-09T01:05:06.296Z,100635.84
2022-12-09T01:07:39.258Z,100639.84
2022-12-09T01:10:12.440Z,100628.84
2022-12-09T01:12:45.574Z,100629.00
2022-12-09T01:15:18.843Z,100633.28
2022-12-09T01:17:51.540Z,100632.28
2022-12-09T01:20:26.283Z,100632.16
2022-12-09T01:22:59.086Z,100628.66
2022-12-09T01:25:32.372Z,100640.94
2022-12-09T01:28:05.132Z,100648.44
2022-12-09T01:30:38.026Z,100649.56
2022-12-09T01:33:13.305Z,100650.34
2022-12-09T01:35:47.533Z,100643.66
2022-12-09T01:38:21.601Z,100653.19
2022-12-09T01:40:54.673Z,100646.06
2022-12-09T01:43:27.545Z,100652.28
2022-12-09T01:46:00.421Z,100655.00
2022-12-09T01:48:33.768Z,100649.22
2022-12-09T01:51:10.159Z,100644.72
2022-12-09T01:53:45.246Z,100647.31
2022-12-09T01:56:22.391Z,100650.69
2022-12-09T01:58:55.502Z,100642.56
2022-12-09T02:01:29.058Z,100643.19
2022-12-09T02:04:02.194Z,100646.19
2022-12-09T02:06:38.561Z,100646.84
2022-12-09T02:09:13.836Z,100636.19
2022-12-09T02:11:59.071Z,100642.06
2022-12-09T02:14:36.793Z,100638.91
2022-12-09T02:17:21.354Z,100628.84
2022-12-09T02:20:01.490Z,100624.03
2022-12-09T02:22:39.657Z,100621.97
2022-12-09T02:25:19.239Z,100623.69
2022-12-09T02:27:59.188Z,100621.66
2022-12-09T02:30:33.441Z,100625.16
2022-12-09T02:33:24.712Z,100624.66
2022-12-09T02:36:04.113Z,100621.31
2022-12-09T02:38:39.084Z,100627.38
2022-12-09T02:41:17.326Z,100621.78
2022-12-09T02:43:55.384Z,100637.06
2022-12-09T02:46:35.720Z,100638.84
2022-12-09T02:49:13.531Z,100634.09
2022-12-09T02:51:50.535Z,100624.03
2022-12-09T02:54:24.587Z,100620.19
2022-12-09T02:57:01.536Z,100624.47
2022-12-09T02:59:35.627Z,100623.69
2022-12-09T03:02:15.269Z,100615.91
2022-12-09T03:04:52.961Z,100613.53
2022-12-09T03:07:32.710Z,100606.75
2022-12-09T03:10:08.786Z,100611.38
2022-12-09T03:12:43.322Z,100612.16
2022-12-09T03:15:20.072Z,100608.22
2022-12-09T03:17:54.081Z,100610.94
2022-12-09T03:20:30.398Z,100604.84
2022-12-09T03:23:06.000Z,100596.56
2022-12-09T03:25:40.575Z,100598.16
2022-12-09T03:28:17.099Z,100600.25
2022-12-09T03:30:50.428Z,100601.72
2022-12-09T03:33:24.334Z,100597.09
2022-12-09T03:35:59.196Z,100597.09
2022-12-09T03:38:36.135Z,100599.34
2022-12-09T03:41:13.824Z,100595.31
2022-12-09T03:43:52.331Z,100594.84
2022-12-09T03:46:25.332Z,100591.03
2022-12-09T03:48:58.541Z,100594.19
2022-12-09T03:51:32.823Z,100589.91
2022-12-09T03:54:09.915Z,100583.09
2022-12-09T03:56:44.713Z,100578.31
2022-12-09T03:59:17.424Z,100581.50
2022-12-09T04:01:50.519Z,100589.41
2022-12-09T04:04:23.577Z,100587.50
2022-12-09T04:06:56.395Z,100590.34
2022-12-09T04:09:30.764Z,100591.03
2022-12-09T04:12:03.563Z,100596.91
2022-12-09T04:14:36.478Z,100602.34
2022-12-09T04:17:09.498Z,100591.66
2022-12-09T04:19:42.623Z,100589.56
2022-12-09T04:22:15.642Z,100588.97
2022-12-09T04:24:49.756Z,100589.03
2022-12-09T04:27:22.748Z,100590.09
2022-12-09T04:29:55.473Z,100581.50
2022-12-09T04:32:30.526Z,100584.66
2022-12-09T04:35:03.246Z,100584.66
2022-12-09T04:37:37.517Z,100586.25
2022-12-09T04:40:15.599Z,100575.75
2022-12-09T04:42:52.773Z,100576.19
2022-12-09T04:45:25.707Z,100577.66
2022-12-09T04:47:59.464Z,100580.81
2022-12-09T04:50:32.445Z,100582.13
2022-12-09T04:53:05.238Z,100586.44
2022-12-09T04:55:39.529Z,100588.34
2022-12-09T04:58:12.332Z,100587.56
2022-12-09T05:00:45.468Z,100590.75
2022-12-09T05:03:18.907Z,100594.56
2022-12-09T05:05:53.368Z,100587.78
2022-12-09T05:08:31.426Z,100579.13
2022-12-09T05:11:06.520Z,100583.59
2022-12-09T05:13:39.723Z,100581.22
2022-12-09T05:16:16.438Z,100585.53
2022-12-09T05:18:51.614Z,100583.94
2022-12-09T05:21:24.789Z,100581.22
2022-12-09T05:23:58.268Z,100580.44
2022-12-09T05:26:32.297Z,100571.97
2022-12-09T05:29:05.417Z,100567.47
2022-12-09T05:31:38.446Z,100569.59
2022-12-09T05:34:11.566Z,100573.44
2022-12-09T05:36:44.985Z,100574.88
2022-12-09T05:39:18.169Z,100579.16
2022-12-09T05:41:52.345Z,100580.44
2022-12-09T05:44:27.403Z,100567.84
2022-12-09T05:47:00.247Z,100583.00
2022-12-09T05:49:33.194Z,100578.53
2022-12-09T05:52:06.260Z,100578.84
2022-12-09T05:54:39.390Z,100580.09
2022-12-09T05:57:13.752Z,100577.41
2022-12-09T05:59:46.466Z,100574.22
2022-12-09T06:02:19.631Z,100576.44
2022-12-09T06:04:52.932Z,100570.72
2022-12-09T06:07:26.068Z,100571.00
2022-12-09T06:09:59.490Z,100578.53
2022-12-09T06:12:33.970Z,100569.91
2022-12-09T06:15:10.459Z,100568.00
2022-12-09T06:17:43.991Z,100573.44
2022-12-09T06:20:18.822Z,100574.22
2022-12-09T06:22:51.912Z,100575.81
2022-12-09T06:25:24.899Z,100573.75
2022-12-09T06:27:59.606Z,100568.47
2022-12-09T06:30:33.167Z,100574.88
2022-12-09T06:33:22.881Z,100572.75
2022-12-09T06:36:01.629Z,100571.28
2022-12-09T06:38:35.263Z,100573.09
2022-12-09T06:41:08.705Z,100569.91
2022-12-09T06:43:43.473Z,100568.31
2022-12-09T06:46:17.773Z,100565.09
2022-12-09T06:48:51.199Z,100568.47
2022-12-09T06:51:25.257Z,100557.16
2022-12-09T06:53:58.839Z,100566.09
2022-12-09T06:56:35.281Z,100580.28
2022-12-09T06:59:10.788Z,100562.44
2022-12-09T07:01:44.123Z,100564.47
2022-12-09T07:04:17.813Z,100558.41
2022-12-09T07:06:51.214Z,100559.72
2022-12-09T07:09:24.642Z,100571.03
2022-12-09T07:11:57.649Z,100570.56
2022-12-09T07:14:31.981Z,100575.53
2022-12-09T07:17:05.610Z,100573.28
2022-12-09T07:19:38.779Z,100575.31
2022-12-09T07:22:12.096Z,100571.03
2022-12-09T07:24:45.206Z,100568.81
2022-12-09T07:27:19.806Z,100569.59
2022-12-09T07:29:54.794Z,100574.88
2022-12-09T07:32:29.766Z,100571.28
2022-12-09T07:35:03.016Z,100575.81
2022-12-09T07:37:36.298Z,100586.38
2022-12-09T07:40:09.847Z,100577.13
2022-12-09T07:42:42.987Z,100581.59
2022-12-09T07:45:18.361Z,100581.47
2022-12-09T07:47:51.669Z,100578.63
2022-12-09T07:50:25.319Z,100585.31
2022-12-09T07:52:59.597Z,100584.00
2022-12-09T07:56:04.788Z,100585.53
2022-12-09T07:58:37.864Z,100581.63
2022-12-09T08:01:12.103Z,100582.41
2022-12-09T08:03:46.221Z,100593.16
2022-12-09T08:06:22.038Z,100592.31
2022-12-09T08:08:58.605Z,100589.34
2022-12-09T08:11:34.392Z,100590.47
2022-12-09T08:14:12.892Z,100580.94
2022-12-09T08:16:46.421Z,100587.31
2022-12-09T08:19:19.522Z,100592.47
2022-12-09T08:21:54.813Z,100593.59
2022-12-09T08:24:28.163Z,100587.72
2022-12-09T08:27:02.667Z,100582.31
2022-12-09T08:29:37.275Z,100589.66
2022-12-09T08:32:10.628Z,100586.25
2022-12-09T08:34:44.282Z,100588.38
2022-12-09T08:37:18.174Z,100577.41
2022-12-09T08:39:51.488Z,100584.41
2022-12-09T08:42:26.126Z,100582.81
2022-12-09T08:45:02.485Z,100586.09
2022-12-09T08:47:36.306Z,100591.53
2022-12-09T08:50:10.565Z,100588.28
2022-12-09T08:52:44.363Z,100600.00
2022-12-09T08:55:17.634Z,100591.41
2022-12-09T08:57:52.094Z,100592.47
2022-12-09T09:00:25.074Z,100587.84
2022-12-09T09:02:58.193Z,100587.75
2022-12-09T09:05:31.248Z,100578.75
2022-12-09T09:08:04.896Z,100588.25
2022-12-09T09:10:38.368Z,100584.66
2022-12-09T09:13:16.375Z,100589.41
2022-12-09T09:15:49.640Z,100591.06
2022-12-09T09:18:22.510Z,100600.94
2022-12-09T09:20:58.965Z,100590.09
2022-12-09T09:23:32.659Z,100593.59
2022-12-09T09:26:06.322Z,100604.31
2022-12-09T09:28:40.636Z,100599.03
2022-12-09T09:31:15.982Z,100607.94
2022-12-09T09:33:49.904Z,100614.28
2022-12-09T09:36:25.272Z,100612.06
2022-12-09T09:38:59.532Z,100617.69
2022-12-09T09:41:44.771Z,100623.44
2022-12-09T09:44:28.837Z,100626.06
2022-12-09T09:47:03.762Z,100625.72
2022-12-09T09:49:43.024Z,100624.88
2022-12-09T09:52:21.116Z,100628.06
2022-12-09T09:54:54.853Z,100627.75
2022-12-09T09:57:47.162Z,100630.97
2022-12-09T10:00:26.702Z,100634.06
2022-12-09T10:03:02.549Z,100626.28
2022-12-09T10:05:40.251Z,100630.81
2022-12-09T10:08:32.643Z,100629.47
2022-12-09T10:11:18.916Z,100621.25
2022-12-09T10:13:59.752Z,100624.06
2022-12-09T10:16:40.580Z,100627.66
2022-12-09T10:19:29.149Z,100617.94
2022-12-09T10:22:12.910Z,100617.06
2022-12-09T10:24:50.280Z,100614.84
2022-12-09T10:27:31.283Z,100612.56
2022-12-09T10:30:09.004Z,100605.53
2022-12-09T10:32:44.089Z,100605.66
2022-12-09T10:35:19.893Z,100599.00
2022-12-09T10:37:57.063Z,100597.44
2022-12-09T10:40:36.948Z,100601.72
2022-12-09T10:43:39.025Z,100603.00
2022-12-09T10:46:18.337Z,100604.03
2022-12-09T10:48:58.804Z,100600.72
2022-12-09T10:51:35.690Z,100597.56
2022-12-09T10:54:21.960Z,100596.53
2022-12-09T10:57:26.697Z,100595.91
2022-12-09T11:00:03.264Z,100600.84
2022-12-09T11:02:36.826Z,100597.69
2022-12-09T11:05:26.565Z,100595.31
2022-12-09T11:08:01.079Z,100591.81
2022-12-09T11:10:34.598Z,100597.69
2022-12-09T11:13:09.842Z,100596.09
2022-12-09T11:15:46.156Z,100606.69
2022-12-09T11:18:22.207Z,100604.56
2022-12-09T11:20:59.252Z,100602.06
2022-12-09T11:23:33.568Z,100601.59
2022-12-09T11:26:22.365Z,100591.22
2022-12-09T11:29:04.592Z,100590.88
2022-12-09T11:31:41.045Z,100592.13
2022-12-09T11:34:22.990Z,100593.81
2022-12-09T11:37:02.521Z,100597.66
2022-12-09T11:39:37.571Z,100586.44
2022-12-09T11:42:19.427Z,100587.03
2022-12-09T11:44:57.679Z,100585.09
2022-12-09T11:47:57.183Z,100579.31
2022-12-09T11:50:31.553Z,100576.06
2022-12-09T11:53:25.623Z,100577.06
2022-12-09T11:56:05.614Z,100577.31
2022-12-09T11:58:45.053Z,100572.22
2022-12-09T12:01:25.694Z,100579.22
2022-12-09T12:04:01.987Z,100567.91
2022-12-09T12:06:43.335Z,100577.66
2022-12-09T12:09:23.674Z,100573.13
2022-12-09T12:12:04.501Z,100570.41
2022-12-09T12:14:39.639Z,100575.16
2022-12-09T12:17:19.644Z,100574.47
2022-12-09T12:19:56.366Z,100577.19
2022-12-09T12:22:54.920Z,100577.06
2022-12-09T12:25:41.067Z,100573.34
2022-12-09T12:28:27.045Z,100566.78
2022-12-09T12:31:07.023Z,100579.25
2022-12-09T12:36:57.220Z,100569.03
2022-12-09T12:39:46.361Z,100578.09
2022-12-09T12:42:33.925Z,100578.44
2022-12-09T12:45:39.202Z,100572.91
2022-12-09T12:48:24.294Z,100575.16
2022-12-09T12:51:08.616Z,100571.75
2022-12-09T12:53:54.099Z,100568.00
2022-12-09T12:56:35.901Z,100573.69
2022-12-09T12:59:15.019Z,100575.16
2022-12-09T13:01:54.326Z,100570.56
2022-12-09T13:04:35.873Z,100567.75
2022-12-09T13:07:16.542Z,100561.97
2022-12-09T13:09:56.610Z,100564.91
2022-12-09T13:12:50.715Z,100562.84
2022-12-09T13:15:32.238Z,100561.13
2022-12-09T13:18:08.617Z,100565.78
2022-12-09T13:20:47.409Z,100562.09
2022-12-09T13:23:33.116Z,100551.84
2022-12-09T13:26:18.000Z,100551.63
2022-12-09T13:29:03.563Z,100548.19
2022-12-09T13:31:43.242Z,100549.34
2022-12-09T13:34:27.917Z,100547.91
2022-12-09T13:37:00.746Z,100545.78
2022-12-09T13:39:57.064Z,100546.72
2022-12-09T13:42:55.887Z,100542.28
2022-12-09T13:45:34.291Z,100535.06
2022-12-09T13:48:52.420Z,100535.66
2022-12-09T13:51:27.413Z,100537.72
2022-12-09T13:54:03.508Z,100531.84
2022-12-09T13:56:38.207Z,100524.47
2022-12-09T13:59:39.958Z,100517.31
2022-12-09T14:02:30.001Z,100519.47
2022-12-09T14:05:12.322Z,100520.75
2022-12-09T14:07:50.385Z,100514.63
2022-12-09T14:10:42.984Z,100514.03
2022-12-09T14:13:24.185Z,100510.66
2022-12-09T14:16:18.994Z,100521.19
2022-12-09T14:18:52.825Z,100521.97
2022-12-09T14:21:33.415Z,100517.66
2022-12-09T14:24:32.693Z,100515.53
2022-12-09T14:27:20.689Z,100521.06
2022-12-09T14:29:57.256Z,100519.47
2022-12-09T14:32:56.465Z,100524.63
2022-12-09T14:35:44.161Z,100524.63
2022-12-09T14:38:32.710Z,100521.81
2022-12-09T14:41:18.616Z,100532.00
2022-12-09T14:44:04.136Z,100533.69
2022-12-09T14:46:39.133Z,100532.00
2022-12-09T14:49:17.429Z,100538.44
2022-12-09T14:51:52.859Z,100539.59
2022-12-09T14:54:31.848Z,100541.97
2022-12-09T14:57:21.664Z,100542.56
2022-12-09T14:59:57.664Z,100548.88
2022-12-09T15:02:32.368Z,100543.78
2022-12-09T15:05:17.910Z,100543.91
2022-12-09T15:07:52.948Z,100545.72
2022-12-09T15:10:33.866Z,100543.91
2022-12-09T15:13:10.228Z,100552.28
2022-12-09T15:15:43.840Z,100543.69
2022-12-09T15:18:21.846Z,100550.91
2022-12-09T15:20:57.466Z,100547.31
2022-12-09T15:23:33.487Z,100551.13
2022-12-09T15:26:11.384Z,100562.25
2022-12-09T15:28:55.007Z,100559.19
2022-12-09T15:31:33.007Z,100563.59
2022-12-09T15:34:16.550Z,100555.91
2022-12-09T15:36:59.753Z,100561.22
2022-12-09T15:39:39.922Z,100557.41
2022-12-09T15:42:28.562Z,100564.63
2022-12-09T15:45:19.206Z,100562.25
2022-12-09T15:47:58.098Z,100567.91
2022-12-09T15:50:39.825Z,100571.09
2022-12-09T15:53:23.166Z,100575.28
2022-12-09T15:56:03.911Z,100572.69
2022-12-09T15:58:53.640Z,100574.13
2022-12-09T16:01:36.172Z,100570.28
2022-12-09T16:04:22.235Z,100567.56
2022-12-09T16:07:06.012Z,100563.59
2022-12-09T16:09:39.580Z,100565.88
2022-12-09T16:12:25.969Z,100566.09
2022-12-09T16:15:00.257Z,100568.69
2022-12-09T16:17:36.683Z,100573.66
2022-12-09T16:20:43.977Z,100563.25
2022-12-09T16:23:22.890Z,100562.44
2022-12-09T16:26:06.394Z,100568.22
2022-12-09T16:28:40.710Z,100567.19
2022-12-09T16:31:19.354Z,100569.50
2022-12-09T16:33:52.848Z,100565.50
2022-12-09T16:36:27.809Z,100568.66
2022-12-09T16:39:43.115Z,100571.72
2022-12-09T16:42:23.136Z,100583.91
2022-12-09T16:45:21.228Z,100577.53
2022-12-09T16:47:56.425Z,100574.44
2022-12-09T16:50:31.860Z,100588.69
2022-12-09T16:53:08.014Z,100583.91
2022-12-09T16:55:49.445Z,100576.69
2022-12-09T16:58:23.690Z,100583.38
2022-12-09T17:00:57.482Z,100593.31
2022-12-09T17:03:37.775Z,100587.09
2022-12-09T17:06:15.476Z,100587.09
2022-12-09T17:08:48.329Z,100592.53
2022-12-09T17:11:21.891Z,100597.97
2022-12-09T17:13:54.802Z,100596.19
2022-12-09T17:16:27.836Z,100602.47
2022-12-09T17:19:02.215Z,100599.94
2022-12-09T17:21:35.071Z,100599.53
2022-12-09T17:24:08.811Z,100596.81
2022-12-09T17:26:41.733Z,100598.75
2022-12-09T17:29:14.757Z,100602.69
2022-12-09T17:31:49.748Z,100604.44
2022-12-09T17:34:23.973Z,100594.25
2022-12-09T17:36:57.095Z,100596.53
2022-12-09T17:39:30.568Z,100600.81
2022-12-09T17:42:03.302Z,100600.34
2022-12-09T17:44:36.243Z,100605.41
2022-12-09T17:47:09.735Z,100605.41
2022-12-09T17:49:44.936Z,100603.03
2022-12-09T17:52:17.819Z,100604.88
2022-12-09T17:54:50.644Z,100600.09
2022-12-09T17:57:23.730Z,100611.88
2022-12-09T17:59:58.587Z,100612.13
2022-12-09T18:02:31.436Z,100622.28
2022-12-09T18:05:06.323Z,100616.72
2022-12-09T18:07:39.394Z,100618.38
2022-12-09T18:10:12.812Z,100615.72
2022-12-09T18:12:47.119Z,100624.78
2022-12-09T18:15:20.073Z,100624.53
2022-12-09T18:17:55.548Z,100624.22
2022-12-09T18:20:29.728Z,100622.91
2022-12-09T18:23:05.315Z,100623.56
2022-12-09T18:25:39.954Z,100631.16
2022-12-09T18:28:12.773Z,100631.63
2022-12-09T18:30:47.483Z,100627.81
2022-12-09T18:33:33.354Z,100630.31
2022-12-09T18:36:19.026Z,100626.00
2022-12-09T18:38:52.376Z,100623.97
2022-12-09T18:41:29.063Z,100625.56
2022-12-09T18:44:05.644Z,100621.44
2022-12-09T18:46:44.006Z,100629.50
2022-12-09T18:49:24.835Z,100634.16
2022-12-09T18:52:03.613Z,100623.19
2022-12-09T18:54:40.011Z,100632.28
2022-12-09T18:57:13.628Z,100629.19
2022-12-09T18:59:50.359Z,100634.97
2022-12-09T19:02:23.614Z,100638.41
2022-12-09T19:04:57.069Z,100640.63
2022-12-09T19:07:32.582Z,100639.84
2022-12-09T19:10:08.153Z,100639.97
2022-12-09T19:12:51.538Z,100640.97
2022-12-09T19:15:28.453Z,100638.78
2022-12-09T19:18:01.678Z,100635.75
2022-12-09T19:20:34.877Z,100634.69
2022-12-09T19:23:11.637Z,100637.19
2022-12-09T19:25:45.106Z,100642.44
2022-12-09T19:28:20.461Z,100649.72
2022-12-09T19:30:56.133Z,100637.78
2022-12-09T19:33:29.138Z,100632.97
2022-12-09T19:36:03.910Z,100638.25
2022-12-09T19:38:38.949Z,100632.38
2022-12-09T19:41:12.035Z,100644.19
2022-12-09T19:43:45.422Z,100642.28
2022-12-09T19:46:18.541Z,100645.13
2022-12-09T19:48:51.952Z,100644.88
2022-12-09T19:51:29.114Z,100645.31
2022-12-09T19:54:06.140Z,100649.50
2022-12-09T19:56:39.848Z,100657.03
2022-12-09T19:59:13.837Z,100660.88
2022-12-09T20:01:47.259Z,100651.88
2022-12-09T20:04:48.097Z,100639.28
2022-12-09T20:07:17.352Z,100648.03
2022-12-09T20:09:52.135Z,100642.81
2022-12-09T20:12:25.444Z,100650.97
2022-12-09T20:14:58.603Z,100655.03
2022-12-09T20:17:32.301Z,100657.31
2022-12-09T20:20:07.562Z,100648.72
2022-12-09T20:22:40.843Z,100651.69
2022-12-09T20:25:14.961Z,100663.00
2022-12-09T20:27:48.661Z,100676.91
2022-12-09T20:30:23.466Z,100676.75
2022-12-09T20:32:56.584Z,100677.94
2022-12-09T20:35:29.444Z,100673.97
2022-12-09T20:38:02.986Z,100670.47
2022-12-09T20:40:40.772Z,100669.19
2022-12-09T20:43:17.393Z,100681.03
2022-12-09T20:45:51.041Z,100683.59
2022-12-09T20:48:27.132Z,100684.66
2022-12-09T20:51:07.520Z,100674.56
2022-12-09T20:53:43.880Z,100682.03
2022-12-09T20:56:25.091Z,100689.84
2022-12-09T20:59:03.385Z,100699.78
2022-12-09T21:01:38.275Z,100704.25
2022-12-09T21:04:11.471Z,100700.69
2022-12-09T21:06:45.108Z,100704.09
2022-12-09T21:09:23.401Z,100693.88
2022-12-09T21:11:58.057Z,100689.13
2022-12-09T21:14:33.299Z,100696.31
2022-12-09T21:17:06.313Z,100709.00
2022-12-09T21:19:39.462Z,100713.00
2022-12-09T21:22:12.382Z,100709.78
2022-12-09T21:24:45.762Z,100706.91
2022-12-09T21:27:20.862Z,100705.50
2022-12-09T21:29:53.875Z,100709.50
2022-12-09T21:32:27.061Z,100701.66
2022-12-09T21:35:02.174Z,100702.00
2022-12-09T21:37:36.851Z,100713.06
2022-12-09T21:40:11.328Z,100721.84
2022-12-09T21:42:45.862Z,100721.84
2022-12-09T21:45:19.112Z,100727.41
2022-12-09T21:47:52.160Z,100735.84
2022-12-09T21:50:25.386Z,100744.31
2022-12-09T21:52:58.553Z,100742.28
2022-12-09T21:55:34.395Z,100739.97
2022-12-09T21:58:08.792Z,100738.78
2022-12-09T22:00:43.524Z,100735.56
2022-12-09T22:03:16.367Z,100733.34
2022-12-09T22:05:51.545Z,100742.13
2022-12-09T22:08:28.318Z,100740.97
2022-12-09T22:11:02.614Z,100748.81
2022-12-09T22:13:39.527Z,100757.75
2022-12-09T22:16:16.905Z,100742.06
2022-12-09T22:18:50.620Z,100750.53
2022-12-09T22:21:26.339Z,100747.00
2022-12-09T22:24:02.734Z,100744.47
2022-12-09T22:26:35.704Z,100747.38
2022-12-09T22:29:12.978Z,100743.53
2022-12-09T22:31:47.521Z,100748.31
2022-12-09T22:34:21.596Z,100750.88
2022-12-09T22:36:55.328Z,100738.78
2022-12-09T22:39:28.065Z,100737.59
2022-12-09T22:42:00.821Z,100740.34
2022-12-09T22:44:35.913Z,100742.91
2022-12-09T22:47:09.578Z,100748.16
2022-12-09T22:49:42.437Z,100742.91
2022-12-09T22:52:15.274Z,100744.94
2022-12-09T22:54:49.775Z,100748.16
2022-12-09T22:57:22.712Z,100749.91
2022-12-09T22:59:56.876Z,100748.94
2022-12-09T23:02:30.048Z,100744.16
2022-12-09T23:05:03.209Z,100746.84
2022-12-09T23:07:36.837Z,100750.03
2022-12-09T23:10:11.017Z,100755.97
2022-12-09T23:12:43.942Z,100755.66
2022-12-09T23:15:18.706Z,100752.78
2022-12-09T23:17:51.722Z,100755.66
2022-12-09T23:20:24.361Z,100752.00
2022-12-09T23:22:57.552Z,100750.44
2022-12-09T23:25:30.958Z,100752.50
2022-12-09T23:28:04.445Z,100757.13
2022-12-09T23:30:38.894Z,100748.34
2022-12-09T23:33:11.722Z,100749.63
2022-12-09T23:35:44.559Z,100754.88
2022-12-09T23:38:17.362Z,100748.66
2022-12-09T23:40:53.995Z,100740.84
2022-12-09T23:43:27.227Z,100744.81
2022-12-09T23:46:02.830Z,100739.41
2022-12-09T23:48:36.383Z,100743.91
2022-12-09T23:51:13.026Z,100745.31
2022-12-09T23:53:47.831Z,100738.59
2022-12-09T23:56:22.977Z,100738.78
2022-12-09T23:58:59.110Z,100745.50
